sensor_id;sensor_type;location;lat;lon;timestamp;pressure;altitude;pressure_sealevel;temperature;humidity
45040;BME280;30778;53.574;7.770;2022-09-03T00:00:17;101572.03;;;14.33;36.27
45040;BME280;30778;53.574;7.770;2022-09-03T00:02:47;101571.03;;;14.36;36.41
45040;BME280;30778;53.574;7.770;2022-09-03T00:05:25;101570.88;;;14.20;36.53
45040;BME280;30778;53.574;7.770;2022-09-03T00:08:02;101568.63;;;14.31;36.41
45040;BME280;30778;53.574;7.770;2022-09-03T00:10:40;101572.44;;;14.24;36.79
45040;BME280;30778;53.574;7.770;2022-09-03T00:13:14;101567.47;;;14.18;36.75
45040;BME280;30778;53.574;7.770;2022-09-03T00:15:40;101571.13;;;14.14;36.86
45040;BME280;30778;53.574;7.770;2022-09-03T00:18:11;101573.91;;;14.11;37.16
45040;BME280;30778;53.574;7.770;2022-09-03T00:20:42;101577.59;;;14.07;37.29
45040;BME280;30778;53.574;7.770;2022-09-03T00:23:15;101567.28;;;14.02;37.32
45040;BME280;30778;53.574;7.770;2022-09-03T00:25:51;101566.69;;;13.96;37.75
45040;BME280;30778;53.574;7.770;2022-09-03T00:28:23;101571.41;;;13.87;37.64
45040;BME280;30778;53.574;7.770;2022-09-03T00:31:49;101576.88;;;13.83;37.95
45040;BME280;30778;53.574;7.770;2022-09-03T00:34:19;101570.66;;;13.85;37.91
45040;BME280;30778;53.574;7.770;2022-09-03T00:36:47;101577.59;;;13.86;37.83
45040;BME280;30778;53.574;7.770;2022-09-03T00:39:15;101571.03;;;13.76;37.95
45040;BME280;30778;53.574;7.770;2022-09-03T00:45:08;101571.56;;;13.64;38.37
45040;BME280;30778;53.574;7.770;2022-09-03T00:53:07;101571.91;;;13.55;38.29
45040;BME280;30778;53.574;7.770;2022-09-03T00:56:07;101570.31;;;13.50;38.82
45040;BME280;30778;53.574;7.770;2022-09-03T00:59:03;101566.44;;;13.39;38.99
45040;BME280;30778;53.574;7.770;2022-09-03T01:01:36;101572.53;;;13.39;38.95
45040;BME280;30778;53.574;7.770;2022-09-03T01:04:43;101568.31;;;13.35;39.15
45040;BME280;30778;53.574;7.770;2022-09-03T01:09:58;101556.72;;;13.41;38.99
45040;BME280;30778;53.574;7.770;2022-09-03T01:27:17;101557.16;;;13.30;39.42
45040;BME280;30778;53.574;7.770;2022-09-03T01:30:06;101561.63;;;13.28;39.18
45040;BME280;30778;53.574;7.770;2022-09-03T01:35:53;101565.75;;;13.11;40.19
45040;BME280;30778;53.574;7.770;2022-09-03T01:44:21;101562.03;;;13.17;39.90
45040;BME280;30778;53.574;7.770;2022-09-03T01:47:03;101567.06;;;13.23;39.81
45040;BME280;30778;53.574;7.770;2022-09-03T01:49:37;101567.72;;;13.28;39.57
45040;BME280;30778;53.574;7.770;2022-09-03T01:52:26;101569.50;;;13.28;39.53
45040;BME280;30778;53.574;7.770;2022-09-03T01:54:59;101574.19;;;13.20;39.75
45040;BME280;30778;53.574;7.770;2022-09-03T01:57:42;101576.81;;;13.20;39.89
45040;BME280;30778;53.574;7.770;2022-09-03T02:00:15;101563.91;;;13.14;40.11
45040;BME280;30778;53.574;7.770;2022-09-03T02:02:45;101564.72;;;13.16;40.18
45040;BME280;30778;53.574;7.770;2022-09-03T02:10:18;101566.81;;;13.07;40.54
45040;BME280;30778;53.574;7.770;2022-09-03T02:12:51;101563.69;;;13.20;40.16
45040;BME280;30778;53.574;7.770;2022-09-03T02:15:20;101564.78;;;12.92;40.79
45040;BME280;30778;53.574;7.770;2022-09-03T02:17:47;101569.72;;;13.00;40.64
45040;BME280;30778;53.574;7.770;2022-09-03T02:20:23;101572.44;;;12.98;40.74
45040;BME280;30778;53.574;7.770;2022-09-03T02:22:51;101571.19;;;12.85;40.75
45040;BME280;30778;53.574;7.770;2022-09-03T02:25:18;101564.09;;;12.87;40.78
45040;BME280;30778;53.574;7.770;2022-09-03T02:27:44;101572.53;;;12.95;40.71
45040;BME280;30778;53.574;7.770;2022-09-03T02:30:10;101567.47;;;12.90;40.67
45040;BME280;30778;53.574;7.770;2022-09-03T07:51:43;101544.25;;;19.23;28.54
45040;BME280;30778;53.574;7.770;2022-09-03T07:54:13;101544.50;;;18.64;29.43
45040;BME280;30778;53.574;7.770;2022-09-03T07:56:39;101537.84;;;19.53;28.00
45040;BME280;30778;53.574;7.770;2022-09-03T07:59:04;101534.56;;;20.89;26.14
45040;BME280;30778;53.574;7.770;2022-09-03T08:01:31;101535.97;;;22.33;24.23
45040;BME280;30778;53.574;7.770;2022-09-03T08:03:58;101536.13;;;22.86;23.74
45040;BME280;30778;53.574;7.770;2022-09-03T08:06:26;101533.69;;;23.69;22.40
45040;BME280;30778;53.574;7.770;2022-09-03T08:08:59;101533.84;;;23.88;22.74
45040;BME280;30778;53.574;7.770;2022-09-03T08:11:27;101532.63;;;24.02;22.34
45040;BME280;30778;53.574;7.770;2022-09-03T08:16:19;101529.56;;;24.47;21.63
45040;BME280;30778;53.574;7.770;2022-09-03T08:18:44;101532.56;;;23.71;22.75
45040;BME280;30778;53.574;7.770;2022-09-03T08:21:17;101541.59;;;24.01;22.27
45040;BME280;30778;53.574;7.770;2022-09-03T08:23:46;101540.72;;;23.91;22.48
45040;BME280;30778;53.574;7.770;2022-09-03T08:26:13;101546.41;;;23.34;22.92
45040;BME280;30778;53.574;7.770;2022-09-03T08:28:40;101541.53;;;20.90;25.84
45040;BME280;30778;53.574;7.770;2022-09-03T08:31:18;101550.69;;;21.69;24.95
45040;BME280;30778;53.574;7.770;2022-09-03T08:33:49;101545.16;;;21.95;24.31
45040;BME280;30778;53.574;7.770;2022-09-03T08:36:22;101555.78;;;22.51;23.81
45040;BME280;30778;53.574;7.770;2022-09-03T08:38:50;101552.22;;;22.18;23.43
45040;BME280;30778;53.574;7.770;2022-09-03T09:00:16;101546.00;;;22.74;23.63
45040;BME280;30778;53.574;7.770;2022-09-03T09:05:47;101543.31;;;21.02;25.88
45040;BME280;30778;53.574;7.770;2022-09-03T09:08:32;101538.53;;;20.94;26.12
45040;BME280;30778;53.574;7.770;2022-09-03T09:13:31;101539.31;;;20.84;26.17
45040;BME280;30778;53.574;7.770;2022-09-03T09:16:10;101546.13;;;20.51;26.99
45040;BME280;30778;53.574;7.770;2022-09-03T09:21:32;101540.78;;;21.36;25.83
45040;BME280;30778;53.574;7.770;2022-09-03T09:24:06;101529.72;;;21.18;26.06
45040;BME280;30778;53.574;7.770;2022-09-03T09:26:39;101531.66;;;21.16;25.32
45040;BME280;30778;53.574;7.770;2022-09-03T09:29:07;101526.84;;;20.97;25.32
45040;BME280;30778;53.574;7.770;2022-09-03T09:31:37;101531.66;;;20.92;25.77
45040;BME280;30778;53.574;7.770;2022-09-03T09:34:05;101534.97;;;20.83;26.27
45040;BME280;30778;53.574;7.770;2022-09-03T09:36:40;101527.53;;;20.88;25.87
45040;BME280;30778;53.574;7.770;2022-09-03T09:39:09;101532.19;;;21.32;25.19
45040;BME280;30778;53.574;7.770;2022-09-03T09:41:35;101532.66;;;21.38;25.03
45040;BME280;30778;53.574;7.770;2022-09-03T09:44:02;101521.31;;;21.00;25.03
45040;BME280;30778;53.574;7.770;2022-09-03T09:46:37;101515.88;;;20.78;25.76
45040;BME280;30778;53.574;7.770;2022-09-03T09:49:34;101526.16;;;21.42;24.61
45040;BME280;30778;53.574;7.770;2022-09-03T09:52:09;101522.66;;;21.06;25.56
45040;BME280;30778;53.574;7.770;2022-09-03T09:54:40;101517.56;;;21.03;25.35
45040;BME280;30778;53.574;7.770;2022-09-03T09:57:17;101523.09;;;21.00;25.14
45040;BME280;30778;53.574;7.770;2022-09-03T09:59:45;101514.25;;;21.47;24.51
45040;BME280;30778;53.574;7.770;2022-09-03T10:04:37;101524.66;;;21.50;24.56
45040;BME280;30778;53.574;7.770;2022-09-03T10:07:04;101523.34;;;21.67;24.42
45040;BME280;30778;53.574;7.770;2022-09-03T10:09:40;101530.84;;;21.27;24.78
45040;BME280;30778;53.574;7.770;2022-09-03T10:12:24;101529.00;;;21.51;24.38
45040;BME280;30778;53.574;7.770;2022-09-03T10:15:03;101525.66;;;21.36;24.03
45040;BME280;30778;53.574;7.770;2022-09-03T10:17:56;101517.06;;;21.80;23.95
45040;BME280;30778;53.574;7.770;2022-09-03T10:23:21;101520.09;;;21.40;23.52
45040;BME280;30778;53.574;7.770;2022-09-03T10:26:01;101518.25;;;20.57;25.02
45040;BME280;30778;53.574;7.770;2022-09-03T10:28:38;101516.16;;;21.10;24.28
45040;BME280;30778;53.574;7.770;2022-09-03T10:36:55;101515.25;;;21.22;24.25
45040;BME280;30778;53.574;7.770;2022-09-03T10:50:51;101509.84;;;22.27;23.41
45040;BME280;30778;53.574;7.770;2022-09-03T10:56:50;101500.38;;;22.89;22.76
45040;BME280;30778;53.574;7.770;2022-09-03T11:02:28;101498.44;;;22.36;23.56
45040;BME280;30778;53.574;7.770;2022-09-03T11:08:06;101496.72;;;22.46;23.07
45040;BME280;30778;53.574;7.770;2022-09-03T11:10:38;101497.16;;;22.63;22.86
45040;BME280;30778;53.574;7.770;2022-09-03T11:13:39;101491.84;;;22.74;22.85
45040;BME280;30778;53.574;7.770;2022-09-03T11:16:30;101494.09;;;22.90;22.40
45040;BME280;30778;53.574;7.770;2022-09-03T11:19:05;101492.06;;;22.82;22.37
45040;BME280;30778;53.574;7.770;2022-09-03T11:21:33;101483.28;;;22.91;22.25
45040;BME280;30778;53.574;7.770;2022-09-03T11:24:12;101480.34;;;23.06;21.61
45040;BME280;30778;53.574;7.770;2022-09-03T11:26:46;101491.63;;;22.98;21.90
45040;BME280;30778;53.574;7.770;2022-09-03T11:29:28;101485.44;;;23.18;21.43
45040;BME280;30778;53.574;7.770;2022-09-03T11:32:07;101481.44;;;22.59;22.06
45040;BME280;30778;53.574;7.770;2022-09-03T11:34:50;101479.44;;;22.84;21.89
45040;BME280;30778;53.574;7.770;2022-09-03T11:39:53;101469.94;;;23.66;20.90
45040;BME280;30778;53.574;7.770;2022-09-03T11:42:28;101460.22;;;23.86;21.15
45040;BME280;30778;53.574;7.770;2022-09-03T11:45:10;101468.94;;;23.04;20.83
45040;BME280;30778;53.574;7.770;2022-09-03T11:47:42;101466.31;;;23.46;21.14
45040;BME280;30778;53.574;7.770;2022-09-03T11:50:23;101471.22;;;24.02;20.38
45040;BME280;30778;53.574;7.770;2022-09-03T11:52:51;101465.25;;;23.58;20.36
45040;BME280;30778;53.574;7.770;2022-09-03T11:55:25;101468.34;;;22.68;21.16
45040;BME280;30778;53.574;7.770;2022-09-03T11:57:51;101467.00;;;23.06;20.71
45040;BME280;30778;53.574;7.770;2022-09-03T12:00:17;101465.28;;;23.05;19.90
45040;BME280;30778;53.574;7.770;2022-09-03T12:02:59;101466.56;;;23.21;20.42
45040;BME280;30778;53.574;7.770;2022-09-03T12:09:33;101452.34;;;23.32;20.38
45040;BME280;30778;53.574;7.770;2022-09-03T12:19:57;101448.50;;;23.56;19.96
45040;BME280;30778;53.574;7.770;2022-09-03T12:22:27;101448.28;;;24.79;19.57
45040;BME280;30778;53.574;7.770;2022-09-03T12:25:09;101455.94;;;23.83;19.66
45040;BME280;30778;53.574;7.770;2022-09-03T12:27:36;101457.84;;;23.71;19.46
45040;BME280;30778;53.574;7.770;2022-09-03T12:30:04;101445.47;;;24.41;19.35
45040;BME280;30778;53.574;7.770;2022-09-03T12:32:34;101445.16;;;24.35;19.06
45040;BME280;30778;53.574;7.770;2022-09-03T12:35:15;101439.81;;;24.35;19.16
45040;BME280;30778;53.574;7.770;2022-09-03T12:37:42;101445.78;;;24.08;19.10
45040;BME280;30778;53.574;7.770;2022-09-03T12:40:22;101450.34;;;24.17;18.74
45040;BME280;30778;53.574;7.770;2022-09-03T12:42:49;101444.09;;;23.76;19.16
45040;BME280;30778;53.574;7.770;2022-09-03T12:45:18;101444.47;;;23.61;19.60
45040;BME280;30778;53.574;7.770;2022-09-03T12:47:44;101447.91;;;23.73;19.79
45040;BME280;30778;53.574;7.770;2022-09-03T12:50:15;101449.44;;;23.45;19.62
45040;BME280;30778;53.574;7.770;2022-09-03T12:52:44;101435.84;;;23.06;20.07
45040;BME280;30778;53.574;7.770;2022-09-03T12:57:46;101438.28;;;23.92;19.43
45040;BME280;30778;53.574;7.770;2022-09-03T13:00:15;101439.97;;;23.31;19.48
45040;BME280;30778;53.574;7.770;2022-09-03T13:02:50;101428.63;;;23.18;19.62
45040;BME280;30778;53.574;7.770;2022-09-03T13:05:21;101425.38;;;22.93;20.30
45040;BME280;30778;53.574;7.770;2022-09-03T13:07:55;101417.22;;;23.58;20.65
45040;BME280;30778;53.574;7.770;2022-09-03T13:10:38;101423.34;;;23.79;19.61
45040;BME280;30778;53.574;7.770;2022-09-03T13:13:31;101425.72;;;24.13;18.93
45040;BME280;30778;53.574;7.770;2022-09-03T13:29:44;101417.25;;;23.68;19.31
45040;BME280;30778;53.574;7.770;2022-09-03T13:32:44;101419.25;;;24.06;19.11
45040;BME280;30778;53.574;7.770;2022-09-03T13:35:37;101409.81;;;24.02;19.03
45040;BME280;30778;53.574;7.770;2022-09-03T13:38:13;101413.31;;;24.02;19.19
45040;BME280;30778;53.574;7.770;2022-09-03T13:40:57;101408.56;;;23.66;19.59
45040;BME280;30778;53.574;7.770;2022-09-03T13:46:22;101402.31;;;24.75;18.89
45040;BME280;30778;53.574;7.770;2022-09-03T13:48:49;101395.94;;;24.86;18.35
45040;BME280;30778;53.574;7.770;2022-09-03T13:51:48;101394.72;;;24.71;18.83
45040;BME280;30778;53.574;7.770;2022-09-03T13:54:24;101389.56;;;25.16;18.49
45040;BME280;30778;53.574;7.770;2022-09-03T14:00:06;101404.69;;;24.78;18.82
45040;BME280;30778;53.574;7.770;2022-09-03T14:02:47;101394.41;;;25.03;18.32
45040;BME280;30778;53.574;7.770;2022-09-03T14:05:42;101382.28;;;24.89;17.92
45040;BME280;30778;53.574;7.770;2022-09-03T14:08:44;101390.75;;;24.26;19.04
45040;BME280;30778;53.574;7.770;2022-09-03T14:11:21;101385.66;;;24.13;18.95
45040;BME280;30778;53.574;7.770;2022-09-03T14:19:20;101387.53;;;24.52;19.37
45040;BME280;30778;53.574;7.770;2022-09-03T14:24:23;101386.63;;;24.12;19.51
45040;BME280;30778;53.574;7.770;2022-09-03T14:26:56;101381.75;;;23.77;19.53
45040;BME280;30778;53.574;7.770;2022-09-03T14:29:30;101386.91;;;24.09;19.17
45040;BME280;30778;53.574;7.770;2022-09-03T14:35:03;101388.63;;;24.10;19.04
45040;BME280;30778;53.574;7.770;2022-09-03T14:40:23;101372.25;;;23.53;19.61
45040;BME280;30778;53.574;7.770;2022-09-03T14:43:19;101376.44;;;23.77;19.81
45040;BME280;30778;53.574;7.770;2022-09-03T14:48:46;101370.38;;;23.34;20.30
45040;BME280;30778;53.574;7.770;2022-09-03T14:55:18;101362.53;;;23.42;19.68
45040;BME280;30778;53.574;7.770;2022-09-03T15:00:21;101370.84;;;23.90;19.71
45040;BME280;30778;53.574;7.770;2022-09-03T15:03:16;101372.63;;;23.79;19.30
45040;BME280;30778;53.574;7.770;2022-09-03T15:06:31;101381.88;;;24.16;19.46
45040;BME280;30778;53.574;7.770;2022-09-03T15:09:16;101378.41;;;23.85;19.14
45040;BME280;30778;53.574;7.770;2022-09-03T15:11:54;101382.84;;;23.65;19.60
45040;BME280;30778;53.574;7.770;2022-09-03T15:14:29;101378.56;;;23.21;19.55
45040;BME280;30778;53.574;7.770;2022-09-03T15:20:15;101385.66;;;23.32;20.17
45040;BME280;30778;53.574;7.770;2022-09-03T15:28:36;101388.81;;;23.05;20.10
45040;BME280;30778;53.574;7.770;2022-09-03T15:33:39;101377.66;;;22.90;20.17
45040;BME280;30778;53.574;7.770;2022-09-03T15:36:14;101376.59;;;23.03;20.40
45040;BME280;30778;53.574;7.770;2022-09-03T15:41:16;101393.81;;;22.56;20.85
45040;BME280;30778;53.574;7.770;2022-09-03T15:43:48;101389.47;;;22.44;21.10
45040;BME280;30778;53.574;7.770;2022-09-03T15:46:34;101397.03;;;22.60;20.78
45040;BME280;30778;53.574;7.770;2022-09-03T15:49:17;101391.63;;;22.18;20.81
45040;BME280;30778;53.574;7.770;2022-09-03T15:51:59;101381.50;;;22.44;20.87
45040;BME280;30778;53.574;7.770;2022-09-03T15:54:36;101390.59;;;22.63;20.49
45040;BME280;30778;53.574;7.770;2022-09-03T15:57:19;101388.00;;;22.51;20.76
45040;BME280;30778;53.574;7.770;2022-09-03T16:00:05;101388.94;;;22.62;20.63
45040;BME280;30778;53.574;7.770;2022-09-03T16:03:00;101389.25;;;22.36;21.26
45040;BME280;30778;53.574;7.770;2022-09-03T16:05:54;101385.09;;;22.54;21.26
45040;BME280;30778;53.574;7.770;2022-09-03T16:08:28;101396.56;;;22.34;21.02
45040;BME280;30778;53.574;7.770;2022-09-03T16:16:16;101396.59;;;22.55;21.32
45040;BME280;30778;53.574;7.770;2022-09-03T16:21:34;101396.97;;;22.50;21.21
45040;BME280;30778;53.574;7.770;2022-09-03T16:24:16;101404.97;;;22.50;21.34
45040;BME280;30778;53.574;7.770;2022-09-03T16:27:02;101396.59;;;21.89;21.54
45040;BME280;30778;53.574;7.770;2022-09-03T16:29:31;101401.72;;;21.69;21.88
45040;BME280;30778;53.574;7.770;2022-09-03T16:42:59;101402.84;;;22.33;21.44
45040;BME280;30778;53.574;7.770;2022-09-03T16:48:42;101396.47;;;21.45;22.28
45040;BME280;30778;53.574;7.770;2022-09-03T16:51:22;101402.94;;;21.54;22.29
45040;BME280;30778;53.574;7.770;2022-09-03T17:02:43;101403.28;;;21.61;22.08
45040;BME280;30778;53.574;7.770;2022-09-03T17:05:34;101401.34;;;21.51;22.13
45040;BME280;30778;53.574;7.770;2022-09-03T17:10:45;101402.44;;;21.83;22.20
45040;BME280;30778;53.574;7.770;2022-09-03T17:16:51;101408.59;;;21.72;22.22
45040;BME280;30778;53.574;7.770;2022-09-03T17:19:26;101402.75;;;21.44;22.68
45040;BME280;30778;53.574;7.770;2022-09-03T17:24:34;101413.72;;;21.28;23.08
45040;BME280;30778;53.574;7.770;2022-09-03T17:35:10;101418.25;;;20.92;23.68
45040;BME280;30778;53.574;7.770;2022-09-03T17:45:36;101421.97;;;20.05;25.09
45040;BME280;30778;53.574;7.770;2022-09-03T17:50:57;101427.63;;;20.00;25.02
45040;BME280;30778;53.574;7.770;2022-09-03T17:53:46;101427.53;;;19.89;25.13
45040;BME280;30778;53.574;7.770;2022-09-03T17:58:51;101423.31;;;19.48;25.64
45040;BME280;30778;53.574;7.770;2022-09-03T18:01:22;101437.81;;;19.29;25.91
45040;BME280;30778;53.574;7.770;2022-09-03T18:03:57;101440.06;;;19.48;25.73
45040;BME280;30778;53.574;7.770;2022-09-03T18:06:34;101445.13;;;19.51;25.86
45040;BME280;30778;53.574;7.770;2022-09-03T18:09:06;101456.06;;;19.47;25.94
45040;BME280;30778;53.574;7.770;2022-09-03T18:11:39;101450.88;;;19.33;26.20
45040;BME280;30778;53.574;7.770;2022-09-03T18:14:14;101453.84;;;19.28;26.25
45040;BME280;30778;53.574;7.770;2022-09-03T18:17:02;101463.34;;;19.18;26.64
45040;BME280;30778;53.574;7.770;2022-09-03T18:19:34;101465.03;;;19.06;26.58
45040;BME280;30778;53.574;7.770;2022-09-03T18:22:21;101468.31;;;18.82;26.88
45040;BME280;30778;53.574;7.770;2022-09-03T18:25:11;101468.78;;;18.89;26.71
45040;BME280;30778;53.574;7.770;2022-09-03T18:28:00;101476.25;;;18.82;26.94
45040;BME280;30778;53.574;7.770;2022-09-03T18:30:46;101474.13;;;18.75;27.24
45040;BME280;30778;53.574;7.770;2022-09-03T18:33:30;101482.97;;;18.61;27.14
45040;BME280;30778;53.574;7.770;2022-09-03T18:36:14;101479.91;;;18.67;27.08
45040;BME280;30778;53.574;7.770;2022-09-03T18:39:14;101483.91;;;18.60;27.25
45040;BME280;30778;53.574;7.770;2022-09-03T18:45:02;101497.06;;;18.47;27.34
45040;BME280;30778;53.574;7.770;2022-09-03T18:47:59;101496.22;;;18.46;27.14
45040;BME280;30778;53.574;7.770;2022-09-03T18:57:10;101504.16;;;18.18;27.58
45040;BME280;30778;53.574;7.770;2022-09-03T19:00:14;101507.94;;;18.14;27.85
45040;BME280;30778;53.574;7.770;2022-09-03T19:12:22;101509.09;;;17.95;28.42
45040;BME280;30778;53.574;7.770;2022-09-03T19:15:21;101522.69;;;18.03;28.59
45040;BME280;30778;53.574;7.770;2022-09-03T19:21:44;101523.91;;;17.83;29.24
45040;BME280;30778;53.574;7.770;2022-09-03T19:24:30;101537.97;;;17.84;29.11
45040;BME280;30778;53.574;7.770;2022-09-03T19:27:28;101549.00;;;17.46;29.68
45040;BME280;30778;53.574;7.770;2022-09-03T19:30:28;101543.41;;;17.52;29.88
45040;BME280;30778;53.574;7.770;2022-09-03T19:36:12;101546.97;;;17.51;29.47
45040;BME280;30778;53.574;7.770;2022-09-03T19:39:30;101547.88;;;17.36;29.34
45040;BME280;30778;53.574;7.770;2022-09-03T19:42:38;101547.53;;;17.26;29.24
45040;BME280;30778;53.574;7.770;2022-09-03T19:45:51;101546.03;;;17.06;29.38
45040;BME280;30778;53.574;7.770;2022-09-03T19:51:36;101553.94;;;17.06;28.94
45040;BME280;30778;53.574;7.770;2022-09-03T19:54:24;101554.75;;;16.76;28.96
45040;BME280;30778;53.574;7.770;2022-09-03T19:57:11;101557.88;;;16.99;28.35
45040;BME280;30778;53.574;7.770;2022-09-03T19:59:57;101568.25;;;17.02;28.40
45040;BME280;30778;53.574;7.770;2022-09-03T20:02:45;101566.00;;;16.96;28.47
45040;BME280;30778;53.574;7.770;2022-09-03T20:05:30;101562.75;;;16.91;28.42
45040;BME280;30778;53.574;7.770;2022-09-03T20:08:15;101564.84;;;17.00;28.13
45040;BME280;30778;53.574;7.770;2022-09-03T20:11:01;101566.22;;;17.07;28.13
45040;BME280;30778;53.574;7.770;2022-09-03T20:13:28;101569.22;;;17.01;28.01
45040;BME280;30778;53.574;7.770;2022-09-03T20:22:24;101575.34;;;16.86;28.15
45040;BME280;30778;53.574;7.770;2022-09-03T20:30:31;101576.72;;;16.77;28.23
45040;BME280;30778;53.574;7.770;2022-09-03T20:38:55;101579.34;;;16.77;28.37
45040;BME280;30778;53.574;7.770;2022-09-03T20:47:17;101580.78;;;16.67;28.52
45040;BME280;30778;53.574;7.770;2022-09-03T20:50:20;101582.97;;;16.74;28.68
45040;BME280;30778;53.574;7.770;2022-09-03T20:55:43;101597.22;;;16.72;28.70
45040;BME280;30778;53.574;7.770;2022-09-03T21:01:08;101593.00;;;16.85;28.53
45040;BME280;30778;53.574;7.770;2022-09-03T21:03:49;101592.81;;;16.55;29.00
45040;BME280;30778;53.574;7.770;2022-09-03T21:07:16;101589.78;;;16.47;29.08
45040;BME280;30778;53.574;7.770;2022-09-03T21:12:15;101596.41;;;16.54;29.04
45040;BME280;30778;53.574;7.770;2022-09-03T21:14:53;101599.31;;;16.49;29.39
45040;BME280;30778;53.574;7.770;2022-09-03T21:20:16;101599.66;;;16.59;28.90
45040;BME280;30778;53.574;7.770;2022-09-03T21:25:16;101595.38;;;16.40;29.22
45040;BME280;30778;53.574;7.770;2022-09-03T21:28:12;101601.47;;;16.25;29.64
45040;BME280;30778;53.574;7.770;2022-09-03T21:30:35;101601.25;;;16.46;29.27
45040;BME280;30778;53.574;7.770;2022-09-03T21:33:15;101604.72;;;16.13;29.80
45040;BME280;30778;53.574;7.770;2022-09-03T21:35:46;101614.03;;;16.20;29.42
45040;BME280;30778;53.574;7.770;2022-09-03T21:41:34;101623.34;;;16.10;29.79
45040;BME280;30778;53.574;7.770;2022-09-03T21:44:12;101617.91;;;16.13;29.94
45040;BME280;30778;53.574;7.770;2022-09-03T21:46:48;101625.50;;;15.84;29.92
45040;BME280;30778;53.574;7.770;2022-09-03T21:49:27;101625.22;;;16.08;29.94
45040;BME280;30778;53.574;7.770;2022-09-03T21:52:13;101621.41;;;16.13;29.68
45040;BME280;30778;53.574;7.770;2022-09-03T21:54:41;101626.75;;;16.12;29.86
45040;BME280;30778;53.574;7.770;2022-09-03T22:02:25;101630.66;;;16.05;30.03
45040;BME280;30778;53.574;7.770;2022-09-03T22:04:52;101637.91;;;16.34;29.75
45040;BME280;30778;53.574;7.770;2022-09-03T22:07:46;101645.06;;;16.15;29.96
45040;BME280;30778;53.574;7.770;2022-09-03T22:15:41;101637.56;;;16.07;29.98
45040;BME280;30778;53.574;7.770;2022-09-03T22:18:20;101649.47;;;16.32;29.61
45040;BME280;30778;53.574;7.770;2022-09-03T22:20:55;101643.47;;;16.28;29.71
45040;BME280;30778;53.574;7.770;2022-09-03T22:23:31;101651.03;;;16.36;29.54
45040;BME280;30778;53.574;7.770;2022-09-03T22:26:18;101652.97;;;16.15;29.79
45040;BME280;30778;53.574;7.770;2022-09-03T22:29:10;101647.38;;;16.21;29.55
45040;BME280;30778;53.574;7.770;2022-09-03T22:31:47;101653.44;;;16.06;30.04
45040;BME280;30778;53.574;7.770;2022-09-03T22:34:31;101654.91;;;16.29;29.61
45040;BME280;30778;53.574;7.770;2022-09-03T22:37:04;101651.94;;;16.17;29.89
45040;BME280;30778;53.574;7.770;2022-09-03T22:39:36;101646.47;;;16.05;30.05
45040;BME280;30778;53.574;7.770;2022-09-03T22:42:37;101638.53;;;15.87;30.37
45040;BME280;30778;53.574;7.770;2022-09-03T22:50:59;101637.91;;;15.99;30.26
45040;BME280;30778;53.574;7.770;2022-09-03T22:53:43;101639.44;;;15.86;30.37
45040;BME280;30778;53.574;7.770;2022-09-03T22:56:17;101639.44;;;15.86;30.40
45040;BME280;30778;53.574;7.770;2022-09-03T22:58:48;101643.03;;;15.85;30.44
45040;BME280;30778;53.574;7.770;2022-09-03T23:01:22;101643.41;;;15.77;30.43
45040;BME280;30778;53.574;7.770;2022-09-03T23:06:56;101633.25;;;15.87;30.43
45040;BME280;30778;53.574;7.770;2022-09-03T23:09:31;101636.34;;;15.78;30.64
45040;BME280;30778;53.574;7.770;2022-09-03T23:12:00;101634.94;;;15.53;30.97
45040;BME280;30778;53.574;7.770;2022-09-03T23:14:35;101643.31;;;15.79;30.69
45040;BME280;30778;53.574;7.770;2022-09-03T23:17:12;101640.47;;;15.66;30.89
45040;BME280;30778;53.574;7.770;2022-09-03T23:19:45;101637.34;;;15.58;31.15
45040;BME280;30778;53.574;7.770;2022-09-03T23:22:17;101637.28;;;15.59;31.34
45040;BME280;30778;53.574;7.770;2022-09-03T23:27:29;101637.25;;;15.42;31.50
45040;BME280;30778;53.574;7.770;2022-09-03T23:29:59;101636.47;;;15.40;31.65
45040;BME280;30778;53.574;7.770;2022-09-03T23:32:27;101644.78;;;15.12;31.89
45040;BME280;30778;53.574;7.770;2022-09-03T23:34:58;101643.78;;;15.14;31.84
45040;BME280;30778;53.574;7.770;2022-09-03T23:40:33;101642.44;;;15.06;31.60
45040;BME280;30778;53.574;7.770;2022-09-03T23:46:17;101644.16;;;15.26;31.52
45040;BME280;30778;53.574;7.770;2022-09-03T23:54:24;101645.25;;;15.22;31.90
45040;BME280;30778;53.574;7.770;2022-09-03T23:57:06;101649.41;;;15.07;32.13
